createdAt,value
2024-04-14T00:01:26.103Z,2.70
2024-04-14T00:03:57.061Z,2.93
2024-04-14T00:06:24.658Z,3.17
2024-04-14T00:08:52.603Z,3.20
2024-04-14T00:11:20.209Z,2.70
2024-04-14T00:13:47.517Z,2.63
2024-04-14T00:16:14.791Z,2.77
2024-04-14T00:18:42.139Z,2.87
2024-04-14T00:21:10.877Z,2.90
2024-04-14T00:23:38.097Z,2.67
2024-04-14T00:26:05.428Z,3.00
2024-04-14T00:28:32.650Z,2.80
2024-04-14T00:31:00.037Z,2.90
2024-04-14T00:33:27.915Z,2.67
2024-04-14T00:35:55.328Z,2.90
2024-04-14T00:38:22.577Z,3.00
2024-04-14T00:40:49.833Z,2.87
2024-04-14T00:43:17.079Z,2.80
2024-04-14T00:45:45.234Z,2.90
2024-04-14T00:48:13.165Z,3.00
2024-04-14T00:50:41.494Z,2.97
2024-04-14T00:53:09.868Z,2.90
2024-04-14T00:55:38.137Z,3.20
2024-04-14T00:58:05.601Z,3.10
2024-04-14T01:00:34.532Z,3.10
2024-04-14T01:03:01.939Z,2.70
2024-04-14T01:05:29.224Z,2.83
2024-04-14T01:07:57.566Z,2.93
2024-04-14T01:10:26.854Z,3.10
2024-04-14T01:12:54.327Z,3.10
2024-04-14T01:15:21.743Z,3.40
2024-04-14T01:17:49.442Z,3.33
2024-04-14T01:20:16.864Z,3.27
2024-04-14T01:22:44.142Z,2.97
2024-04-14T01:25:12.703Z,3.27
2024-04-14T01:27:41.977Z,3.60
2024-04-14T01:30:09.528Z,3.10
2024-04-14T01:32:39.886Z,3.10
2024-04-14T01:35:10.785Z,3.27
2024-04-14T01:37:38.069Z,3.40
2024-04-14T01:40:06.625Z,3.70
2024-04-14T01:42:33.978Z,3.17
2024-04-14T01:45:02.073Z,3.53
2024-04-14T01:47:29.504Z,3.40
2024-04-14T01:49:56.861Z,3.20
2024-04-14T01:52:25.826Z,3.60
2024-04-14T01:54:53.454Z,3.30
2024-04-14T01:57:20.832Z,3.10
2024-04-14T01:59:49.926Z,3.30
2024-04-14T02:02:18.280Z,3.30
2024-04-14T02:04:45.622Z,3.30
2024-04-14T02:07:12.892Z,2.93
2024-04-14T02:09:40.106Z,3.17
2024-04-14T02:12:07.482Z,3.30
2024-04-14T02:14:34.707Z,3.13
2024-04-14T02:17:01.916Z,2.87
2024-04-14T02:19:29.233Z,3.10
2024-04-14T02:21:56.548Z,3.10
2024-04-14T02:24:25.059Z,3.53
2024-04-14T02:26:52.324Z,3.17
2024-04-14T02:29:19.546Z,3.07
2024-04-14T02:31:46.763Z,3.30
2024-04-14T02:34:14.007Z,3.40
2024-04-14T02:36:41.328Z,3.23
2024-04-14T02:39:08.561Z,3.17
2024-04-14T02:41:36.705Z,3.10
2024-04-14T02:44:06.001Z,3.30
2024-04-14T02:46:33.242Z,3.73
2024-04-14T02:49:00.529Z,3.20
2024-04-14T02:51:27.989Z,3.23
2024-04-14T02:53:55.266Z,2.90
2024-04-14T02:56:22.615Z,3.30
2024-04-14T02:58:49.898Z,3.07
2024-04-14T03:01:18.560Z,3.33
2024-04-14T03:03:45.962Z,3.00
2024-04-14T03:06:13.602Z,3.23
2024-04-14T03:08:40.805Z,3.70
2024-04-14T03:11:09.017Z,3.30
2024-04-14T03:13:36.428Z,3.37
2024-04-14T03:16:04.406Z,3.23
2024-04-14T03:18:31.958Z,3.20
2024-04-14T03:21:00.215Z,3.10
2024-04-14T03:23:28.138Z,3.10
2024-04-14T03:25:55.818Z,3.33
2024-04-14T03:28:23.637Z,3.37
2024-04-14T03:30:51.051Z,3.20
2024-04-14T03:33:18.387Z,3.47
2024-04-14T03:35:45.615Z,3.07
2024-04-14T03:38:12.847Z,3.07
2024-04-14T03:40:40.058Z,3.00
2024-04-14T03:43:07.288Z,3.20
2024-04-14T03:45:34.786Z,3.50
2024-04-14T03:48:02.150Z,3.07
2024-04-14T03:50:30.400Z,3.13
2024-04-14T03:52:57.629Z,3.47
2024-04-14T03:55:24.907Z,3.30
2024-04-14T03:57:52.201Z,3.43
2024-04-14T04:00:19.491Z,3.43
2024-04-14T04:02:46.744Z,3.37
2024-04-14T04:05:13.981Z,3.37
2024-04-14T04:07:41.193Z,3.13
2024-04-14T04:10:08.418Z,3.40
2024-04-14T04:12:36.105Z,3.40
2024-04-14T04:15:03.314Z,3.20
2024-04-14T04:17:30.643Z,3.07
2024-04-14T04:19:57.985Z,3.30
2024-04-14T04:22:25.231Z,3.43
2024-04-14T04:24:52.501Z,3.47
2024-04-14T04:27:19.740Z,3.27
2024-04-14T04:29:46.997Z,3.30
2024-04-14T04:32:18.984Z,3.50
2024-04-14T04:34:46.895Z,3.27
2024-04-14T04:37:15.439Z,3.20
2024-04-14T04:39:42.698Z,3.50
2024-04-14T04:42:09.922Z,3.33
2024-04-14T04:44:37.125Z,3.50
2024-04-14T04:47:04.373Z,3.00
2024-04-14T04:49:31.702Z,3.23
2024-04-14T04:51:59.085Z,3.10
2024-04-14T04:54:26.443Z,3.40
2024-04-14T04:56:53.694Z,3.10
2024-04-14T04:59:23.269Z,3.20
2024-04-14T05:01:50.520Z,3.60
2024-04-14T05:04:17.761Z,3.30
2024-04-14T05:06:45.042Z,3.30
2024-04-14T05:09:12.462Z,3.53
2024-04-14T05:11:39.701Z,3.17
2024-04-14T05:14:06.897Z,3.43
2024-04-14T05:16:34.113Z,3.07
2024-04-14T05:19:01.590Z,2.90
2024-04-14T05:21:29.006Z,3.13
2024-04-14T05:23:56.248Z,2.90
2024-04-14T05:26:23.518Z,3.00
2024-04-14T05:28:50.761Z,3.00
2024-04-14T05:31:17.984Z,3.30
2024-04-14T05:33:45.363Z,3.07
2024-04-14T05:36:12.634Z,3.10
2024-04-14T05:38:41.160Z,2.77
2024-04-14T05:41:08.398Z,2.60
2024-04-14T05:43:35.603Z,2.80
2024-04-14T05:46:03.011Z,2.63
2024-04-14T05:48:30.373Z,2.50
2024-04-14T05:50:57.644Z,3.13
2024-04-14T05:53:24.894Z,2.70
2024-04-14T05:55:52.148Z,2.40
2024-04-14T05:58:19.377Z,2.73
2024-04-14T06:00:46.730Z,2.42
2024-04-14T06:03:14.102Z,2.45
2024-04-14T06:05:41.372Z,2.60
2024-04-14T06:08:08.656Z,2.53
2024-04-14T06:10:35.991Z,2.58
2024-04-14T06:13:03.284Z,2.45
2024-04-14T06:15:30.612Z,2.75
2024-04-14T06:17:57.945Z,2.70
2024-04-14T06:20:25.281Z,2.72
2024-04-14T06:22:52.550Z,2.70
2024-04-14T06:25:19.772Z,2.50
2024-04-14T06:27:47.055Z,2.30
2024-04-14T06:30:14.355Z,2.38
2024-04-14T06:32:42.024Z,2.83
2024-04-14T06:35:09.473Z,2.92
2024-04-14T06:37:37.138Z,2.35
2024-04-14T06:40:04.572Z,2.15
2024-04-14T06:42:31.887Z,2.00
2024-04-14T06:44:59.134Z,2.10
2024-04-14T06:47:26.449Z,2.00
2024-04-14T06:49:53.769Z,2.03
2024-04-14T06:52:20.970Z,2.00
2024-04-14T06:54:48.238Z,2.15
2024-04-14T06:57:15.500Z,2.30
2024-04-14T06:59:43.833Z,2.40
2024-04-14T07:02:11.629Z,2.00
2024-04-14T07:04:38.934Z,1.80
2024-04-14T07:07:06.200Z,2.10
2024-04-14T07:09:33.534Z,2.10
2024-04-14T07:12:00.772Z,1.90
2024-04-14T07:14:28.009Z,2.20
2024-04-14T07:16:55.284Z,2.20
2024-04-14T07:19:22.499Z,2.10
2024-04-14T07:21:49.790Z,2.33
2024-04-14T07:24:17.074Z,2.00
2024-04-14T07:26:44.283Z,2.10
2024-04-14T07:29:11.656Z,2.10
2024-04-14T07:31:38.858Z,1.92
2024-04-14T07:34:06.198Z,2.30
2024-04-14T07:36:33.556Z,1.90
2024-04-14T07:39:00.762Z,1.98
2024-04-14T07:41:28.006Z,2.00
2024-04-14T07:43:55.299Z,1.90
2024-04-14T07:46:23.774Z,1.95
2024-04-14T07:48:51.267Z,1.73
2024-04-14T07:51:18.625Z,2.10
2024-04-14T07:53:45.901Z,1.90
2024-04-14T07:56:13.103Z,2.17
2024-04-14T07:58:40.344Z,1.83
2024-04-14T08:01:07.733Z,2.00
2024-04-14T08:03:46.846Z,1.75
2024-04-14T08:06:20.745Z,1.90
2024-04-14T08:08:48.044Z,1.83
2024-04-14T08:11:15.317Z,1.90
2024-04-14T08:13:42.525Z,2.00
2024-04-14T08:16:09.878Z,2.40
2024-04-14T08:18:37.142Z,2.17
2024-04-14T08:21:04.523Z,2.15
2024-04-14T08:23:31.760Z,1.90
2024-04-14T08:26:01.625Z,2.10
2024-04-14T08:28:28.837Z,1.98
2024-04-14T08:30:56.109Z,1.90
2024-04-14T08:33:23.427Z,1.90
2024-04-14T08:35:50.651Z,1.90
2024-04-14T08:38:18.459Z,1.73
2024-04-14T08:40:52.665Z,1.83
2024-04-14T08:43:21.032Z,1.67
2024-04-14T08:45:51.679Z,1.67
2024-04-14T08:48:19.842Z,1.75
2024-04-14T08:50:48.096Z,1.60
2024-04-14T08:53:19.968Z,1.75
2024-04-14T08:55:47.824Z,1.55
2024-04-14T08:58:16.521Z,1.80
2024-04-14T09:00:46.262Z,1.30
2024-04-14T09:03:13.610Z,1.48
2024-04-14T09:05:42.805Z,1.65
2024-04-14T09:08:10.024Z,1.75
2024-04-14T09:10:37.230Z,1.50
2024-04-14T09:13:09.110Z,1.65
2024-04-14T09:15:41.000Z,1.60
2024-04-14T09:18:08.485Z,1.40
2024-04-14T09:20:35.815Z,1.63
2024-04-14T09:23:03.672Z,1.52
2024-04-14T09:25:31.041Z,1.67
2024-04-14T09:28:08.772Z,1.55
2024-04-14T09:30:36.124Z,1.40
2024-04-14T09:33:04.234Z,1.40
2024-04-14T09:35:31.629Z,1.90
2024-04-14T09:38:01.793Z,1.48
2024-04-14T09:40:29.561Z,1.70
2024-04-14T09:42:59.407Z,1.50
2024-04-14T09:45:26.859Z,1.52
2024-04-14T09:47:57.334Z,1.52
2024-04-14T09:50:25.469Z,1.70
2024-04-14T09:52:53.743Z,1.60
2024-04-14T09:55:21.668Z,1.60
2024-04-14T09:57:50.300Z,1.90
2024-04-14T10:00:20.734Z,1.40
2024-04-14T10:02:59.682Z,1.50
2024-04-14T10:05:28.471Z,1.50
2024-04-14T10:07:56.083Z,1.30
2024-04-14T10:10:26.633Z,1.60
2024-04-14T10:12:53.976Z,1.73
2024-04-14T10:15:25.615Z,1.58
2024-04-14T10:18:11.607Z,1.40
2024-04-14T10:20:45.853Z,1.60
2024-04-14T10:23:20.816Z,1.52
2024-04-14T10:25:49.133Z,1.63
2024-04-14T10:28:17.114Z,1.40
2024-04-14T10:30:44.764Z,1.45
2024-04-14T10:33:20.799Z,1.50
2024-04-14T10:35:48.109Z,1.30
2024-04-14T10:38:22.401Z,1.38
2024-04-14T10:40:49.674Z,1.30
2024-04-14T10:43:24.475Z,1.80
2024-04-14T10:45:51.777Z,1.60
2024-04-14T10:48:19.097Z,1.38
2024-04-14T10:50:49.373Z,1.70
2024-04-14T10:53:16.609Z,1.33
2024-04-14T10:55:43.860Z,1.20
2024-04-14T10:58:11.286Z,1.20
2024-04-14T11:00:39.420Z,1.40
2024-04-14T11:03:07.903Z,1.27
2024-04-14T11:05:35.649Z,1.10
2024-04-14T11:08:03.016Z,1.20
2024-04-14T11:10:30.445Z,1.25
2024-04-14T11:12:57.798Z,1.20
2024-04-14T11:15:27.074Z,1.30
2024-04-14T11:17:55.406Z,1.10
2024-04-14T11:20:22.772Z,1.50
2024-04-14T11:22:49.980Z,1.30
2024-04-14T11:25:18.247Z,1.40
2024-04-14T11:27:46.386Z,1.30
2024-04-14T11:30:14.205Z,1.30
2024-04-14T11:32:41.945Z,1.20
2024-04-14T11:35:10.452Z,1.20
2024-04-14T11:37:39.278Z,1.25
2024-04-14T11:40:11.475Z,1.25
2024-04-14T11:42:39.630Z,1.30
2024-04-14T11:45:07.242Z,1.35
2024-04-14T11:47:34.531Z,1.30
2024-04-14T11:50:01.810Z,1.15
2024-04-14T11:52:29.643Z,0.90
2024-04-14T11:54:57.019Z,1.08
2024-04-14T11:57:24.616Z,0.93
2024-04-14T11:59:53.094Z,1.23
2024-04-14T12:02:22.490Z,1.00
2024-04-14T12:04:50.254Z,1.10
2024-04-14T12:07:17.554Z,1.17
2024-04-14T12:09:45.494Z,1.20
2024-04-14T12:12:13.374Z,1.27
2024-04-14T12:14:40.658Z,1.23
2024-04-14T12:17:08.647Z,1.13
2024-04-14T12:19:35.882Z,1.00
2024-04-14T12:22:03.151Z,1.00
2024-04-14T12:24:30.574Z,1.10
2024-04-14T12:26:57.897Z,1.17
2024-04-14T12:29:25.120Z,1.20
2024-04-14T12:31:52.391Z,1.30
2024-04-14T12:34:19.722Z,1.10
2024-04-14T12:36:47.037Z,1.08
2024-04-14T12:39:20.558Z,1.20
2024-04-14T12:41:51.247Z,1.27
2024-04-14T12:44:18.456Z,1.20
2024-04-14T12:46:45.837Z,1.10
2024-04-14T12:49:15.299Z,1.05
2024-04-14T12:51:42.622Z,1.02
2024-04-14T12:54:11.273Z,1.02
2024-04-14T12:56:38.666Z,0.95
2024-04-14T12:59:05.918Z,1.00
2024-04-14T13:01:33.410Z,1.10
2024-04-14T13:04:00.789Z,1.08
2024-04-14T13:06:28.056Z,1.10
2024-04-14T13:08:55.563Z,0.90
2024-04-14T13:11:22.804Z,1.00
2024-04-14T13:13:50.088Z,0.98
2024-04-14T13:16:17.499Z,1.13
2024-04-14T13:18:44.948Z,1.13
2024-04-14T13:21:12.221Z,1.08
2024-04-14T13:23:41.706Z,1.00
2024-04-14T13:26:09.266Z,1.25
2024-04-14T13:28:36.490Z,1.30
2024-04-14T13:31:03.820Z,1.05
2024-04-14T13:33:31.198Z,1.27
2024-04-14T13:35:58.621Z,1.20
2024-04-14T13:38:25.890Z,1.55
2024-04-14T13:40:53.148Z,1.17
2024-04-14T13:43:20.421Z,1.52
2024-04-14T13:45:47.722Z,1.30
2024-04-14T13:48:15.020Z,1.30
2024-04-14T13:50:42.241Z,1.30
2024-04-14T13:53:09.668Z,1.10
2024-04-14T13:55:37.100Z,1.10
2024-04-14T13:58:04.470Z,1.10
2024-04-14T14:00:34.298Z,1.27
2024-04-14T14:03:01.562Z,1.40
2024-04-14T14:05:28.802Z,1.30
2024-04-14T14:07:56.816Z,1.10
2024-04-14T14:10:25.250Z,1.20
2024-04-14T14:12:52.537Z,1.17
2024-04-14T14:15:20.627Z,1.30
2024-04-14T14:17:47.901Z,1.40
2024-04-14T14:20:15.307Z,1.20
2024-04-14T14:22:42.601Z,1.30
2024-04-14T14:25:09.871Z,1.40
2024-04-14T14:27:37.234Z,1.30
2024-04-14T14:30:04.705Z,1.20
2024-04-14T14:32:33.496Z,1.20
2024-04-14T14:35:19.932Z,1.50
2024-04-14T14:37:47.201Z,1.25
2024-04-14T14:40:14.718Z,1.45
2024-04-14T14:42:42.145Z,1.38
2024-04-14T14:45:09.553Z,1.35
2024-04-14T14:47:36.801Z,1.40
2024-04-14T14:50:04.227Z,1.50
2024-04-14T14:52:31.461Z,1.50
2024-04-14T14:54:58.807Z,1.20
2024-04-14T14:57:26.240Z,1.10
2024-04-14T14:59:53.712Z,1.10
2024-04-14T15:02:20.957Z,1.20
2024-04-14T15:04:48.411Z,1.20
2024-04-14T15:07:15.687Z,1.30
2024-04-14T15:09:43.197Z,1.27
2024-04-14T15:12:12.430Z,1.40
2024-04-14T15:14:39.895Z,1.10
2024-04-14T15:17:07.218Z,1.20
2024-04-14T15:19:35.069Z,1.10
2024-04-14T15:22:02.942Z,1.30
2024-04-14T15:24:30.236Z,1.35
2024-04-14T15:26:57.467Z,1.38
2024-04-14T15:29:26.381Z,1.20
2024-04-14T15:31:53.716Z,1.23
2024-04-14T15:34:21.033Z,1.40
2024-04-14T15:36:48.280Z,1.42
2024-04-14T15:39:15.531Z,1.40
2024-04-14T15:41:43.209Z,1.20
2024-04-14T15:44:17.971Z,1.10
2024-04-14T15:46:50.950Z,1.27
2024-04-14T15:49:18.230Z,1.30
2024-04-14T15:51:45.621Z,1.30
2024-04-14T15:54:12.877Z,1.23
2024-04-14T15:56:40.098Z,1.40
2024-04-14T15:59:07.664Z,1.40
2024-04-14T16:01:34.997Z,1.20
2024-04-14T16:04:02.446Z,1.50
2024-04-14T16:06:29.757Z,1.60
2024-04-14T16:08:58.164Z,1.33
2024-04-14T16:11:25.924Z,1.48
2024-04-14T16:13:54.152Z,1.60
2024-04-14T16:16:21.592Z,1.30
2024-04-14T16:18:49.491Z,1.58
2024-04-14T16:21:16.820Z,1.48
2024-04-14T16:23:48.020Z,1.15
2024-04-14T16:26:15.308Z,1.50
2024-04-14T16:28:42.978Z,1.50
2024-04-14T16:31:10.944Z,1.40
2024-04-14T16:33:38.278Z,1.67
2024-04-14T16:36:05.732Z,1.60
2024-04-14T16:38:32.966Z,1.40
2024-04-14T16:41:00.381Z,1.20
2024-04-14T16:43:27.660Z,1.30
2024-04-14T16:45:55.541Z,1.40
2024-04-14T16:48:23.529Z,1.17
2024-04-14T16:50:51.137Z,1.40
2024-04-14T16:53:18.343Z,1.40
2024-04-14T16:55:45.585Z,1.30
2024-04-14T16:58:12.940Z,1.48
2024-04-14T17:00:40.278Z,1.52
2024-04-14T17:03:07.651Z,1.83
2024-04-14T17:05:36.176Z,1.98
2024-04-14T17:08:03.460Z,1.88
2024-04-14T17:10:31.550Z,2.17
2024-04-14T17:12:58.823Z,1.60
2024-04-14T17:15:27.409Z,1.60
2024-04-14T17:17:54.725Z,1.90
2024-04-14T17:20:21.974Z,2.60
2024-04-14T17:22:49.237Z,2.53
2024-04-14T17:25:16.952Z,2.67
2024-04-14T17:27:44.288Z,2.88
2024-04-14T17:30:11.571Z,2.17
2024-04-14T17:32:39.018Z,2.00
2024-04-14T17:35:06.534Z,2.40
2024-04-14T17:37:33.761Z,3.35
2024-04-14T17:40:04.626Z,2.33
2024-04-14T17:42:33.934Z,1.95
2024-04-14T17:45:01.374Z,1.55
2024-04-14T17:47:28.727Z,1.92
2024-04-14T17:49:56.096Z,2.20
2024-04-14T17:52:23.347Z,1.40
2024-04-14T17:54:50.758Z,1.50
2024-04-14T17:57:18.067Z,1.40
2024-04-14T17:59:45.268Z,1.70
2024-04-14T18:02:12.596Z,1.73
2024-04-14T18:04:40.878Z,1.90
2024-04-14T18:07:08.334Z,1.70
2024-04-14T18:09:35.830Z,1.70
2024-04-14T18:12:03.261Z,1.63
2024-04-14T18:14:30.524Z,1.67
2024-04-14T18:16:57.787Z,1.35
2024-04-14T18:19:25.005Z,1.52
2024-04-14T18:21:52.283Z,1.42
2024-04-14T18:24:19.568Z,1.50
2024-04-14T18:26:46.841Z,1.50
2024-04-14T18:29:14.064Z,1.50
2024-04-14T18:31:41.768Z,1.70
2024-04-14T18:34:09.312Z,2.10
2024-04-14T18:36:36.655Z,1.70
2024-04-14T18:39:03.968Z,1.42
2024-04-14T18:41:31.273Z,1.67
2024-04-14T18:43:58.499Z,1.70
2024-04-14T18:46:28.124Z,1.83
2024-04-14T18:48:55.420Z,1.52
2024-04-14T18:51:22.658Z,1.42
2024-04-14T18:53:49.922Z,2.00
2024-04-14T18:56:17.200Z,1.55
2024-04-14T18:58:44.499Z,1.75
2024-04-14T19:01:11.808Z,1.63
2024-04-14T19:03:39.286Z,1.52
2024-04-14T19:06:08.439Z,1.80
2024-04-14T19:08:36.140Z,1.70
2024-04-14T19:11:03.546Z,1.70
2024-04-14T19:13:30.782Z,1.60
2024-04-14T19:15:58.764Z,1.88
2024-04-14T19:18:26.087Z,1.60
2024-04-14T19:20:53.691Z,1.90
2024-04-14T19:23:21.256Z,2.03
2024-04-14T19:25:48.598Z,2.78
2024-04-14T19:28:17.067Z,2.38
2024-04-14T19:30:44.713Z,2.03
2024-04-14T19:33:11.953Z,2.28
2024-04-14T19:35:47.041Z,1.80
2024-04-14T19:38:23.872Z,2.53
2024-04-14T19:40:51.085Z,2.08
2024-04-14T19:43:18.363Z,2.42
2024-04-14T19:45:45.638Z,2.53
2024-04-14T19:48:12.946Z,2.90
2024-04-14T19:50:40.179Z,2.50
2024-04-14T19:53:07.453Z,2.30
2024-04-14T19:55:34.675Z,2.33
2024-04-14T19:58:01.891Z,2.47
2024-04-14T20:00:29.274Z,2.40
2024-04-14T20:02:56.563Z,2.30
2024-04-14T20:05:23.792Z,2.60
2024-04-14T20:07:51.045Z,3.57
2024-04-14T20:10:18.376Z,2.67
2024-04-14T20:12:45.664Z,2.77
2024-04-14T20:15:13.095Z,2.83
2024-04-14T20:17:40.401Z,2.63
2024-04-14T20:20:07.980Z,2.53
2024-04-14T20:22:35.478Z,2.10
2024-04-14T20:25:02.750Z,2.23
2024-04-14T20:27:32.309Z,2.20
2024-04-14T20:30:00.281Z,2.20
2024-04-14T20:32:27.806Z,2.30
2024-04-14T20:34:55.046Z,2.43
2024-04-14T20:37:22.302Z,2.67
2024-04-14T20:39:49.555Z,2.40
2024-04-14T20:42:17.864Z,2.10
2024-04-14T20:44:45.138Z,2.10
2024-04-14T20:47:12.435Z,1.97
2024-04-14T20:49:39.685Z,2.17
2024-04-14T20:52:07.131Z,2.00
2024-04-14T20:54:34.394Z,2.40
2024-04-14T20:57:01.632Z,2.13
2024-04-14T20:59:28.854Z,2.20
2024-04-14T21:01:56.183Z,2.27
2024-04-14T21:04:30.078Z,2.20
2024-04-14T21:07:00.773Z,2.70
2024-04-14T21:09:28.146Z,2.37
2024-04-14T21:11:55.377Z,2.60
2024-04-14T21:14:22.592Z,2.30
2024-04-14T21:16:49.857Z,2.57
2024-04-14T21:19:17.339Z,2.63
2024-04-14T21:21:44.823Z,2.40
2024-04-14T21:24:12.208Z,2.40
2024-04-14T21:26:39.439Z,2.43
2024-04-14T21:29:06.683Z,2.53
2024-04-14T21:31:33.894Z,2.53
2024-04-14T21:34:01.183Z,2.37
2024-04-14T21:36:28.470Z,2.50
2024-04-14T21:38:55.724Z,2.50
2024-04-14T21:41:24.729Z,2.33
2024-04-14T21:43:51.955Z,2.77
2024-04-14T21:46:19.235Z,2.20
2024-04-14T21:48:46.561Z,3.20
2024-04-14T21:51:14.491Z,2.80
2024-04-14T21:53:42.020Z,3.10
2024-04-14T21:56:09.260Z,2.87
2024-04-14T21:58:37.087Z,2.90
2024-04-14T22:01:12.786Z,2.80
2024-04-14T22:03:41.196Z,2.70
2024-04-14T22:06:08.538Z,2.53
2024-04-14T22:08:38.043Z,2.50
2024-04-14T22:11:08.360Z,2.80
2024-04-14T22:13:39.528Z,2.30
2024-04-14T22:16:07.153Z,2.70
2024-04-14T22:18:34.392Z,2.60
2024-04-14T22:21:01.643Z,2.57
2024-04-14T22:23:28.954Z,2.40
2024-04-14T22:25:56.264Z,2.70
2024-04-14T22:28:23.548Z,3.00
2024-04-14T22:30:50.788Z,2.40
2024-04-14T22:33:18.066Z,2.77
2024-04-14T22:35:45.372Z,2.67
2024-04-14T22:38:12.699Z,2.23
2024-04-14T22:40:39.928Z,2.60
2024-04-14T22:43:07.245Z,2.80
2024-04-14T22:45:34.502Z,2.70
2024-04-14T22:48:01.793Z,2.60
2024-04-14T22:50:29.026Z,2.60
2024-04-14T22:52:56.264Z,2.93
2024-04-14T22:55:23.482Z,2.60
2024-04-14T22:57:50.686Z,2.50
2024-04-14T23:00:17.968Z,2.90
2024-04-14T23:02:45.259Z,2.80
2024-04-14T23:05:13.915Z,2.90
2024-04-14T23:07:41.161Z,2.67
2024-04-14T23:10:09.826Z,2.90
2024-04-14T23:12:37.216Z,2.80
2024-04-14T23:15:04.663Z,2.70
2024-04-14T23:17:31.946Z,2.70
2024-04-14T23:20:00.112Z,2.73
2024-04-14T23:22:27.422Z,2.80
2024-04-14T23:24:54.755Z,2.93
2024-04-14T23:27:22.039Z,2.90
2024-04-14T23:29:49.260Z,2.60
2024-04-14T23:32:16.606Z,2.60
2024-04-14T23:34:43.910Z,2.80
2024-04-14T23:37:11.198Z,2.67
2024-04-14T23:39:38.477Z,3.33
2024-04-14T23:42:05.712Z,2.70
2024-04-14T23:44:32.992Z,2.50
2024-04-14T23:47:00.223Z,2.67
2024-04-14T23:49:27.834Z,2.90
2024-04-14T23:51:55.182Z,2.70
2024-04-14T23:54:22.402Z,3.00
2024-04-14T23:56:51.013Z,2.97
2024-04-14T23:59:18.244Z,2.90
